Flight Track Log - Related Links

Times and Time Zones

All times are in EDT time to prevent confusion due to time zone crossing. See the KAP5 flight status page for this flight to view local times or setup timezone preferences in your user account.

Time Position Orientation Groundspeed Altitude Reporting Facility
EDT Latitude Longitude Course Direction KTS MPH feet Rate Location/Type
Sat 12:50:37 PM 44.6900 -75.3222 71° East 159 183 4,400  Level Boston Center
Sat 12:51:37 PM 44.6594 -75.2914 144° Southeast 139 160 5,200 700 Climbing Boston Center
Sat 12:52:37 PM 44.6247 -75.2636 150° Southeast 139 160 5,800 650 Climbing Boston Center
Sat 12:53:37 PM 44.5858 -75.2356 153° Southeast 145 167 6,500 545 Climbing Boston Center
Sat 12:54:49 PM 44.5489 -75.2075 152° Southeast 156 180 7,000 227 Climbing Boston Center
Sat 12:55:00 PM 44.7859 -75.0898 71° East  Level FlightAware Approximate
Sat 12:55:49 PM 44.4978 -75.1672 151° Southeast 161 185 7,000  Level Boston Center
Sat 12:56:49 PM 44.4550 -75.1333 151° Southeast 172 198 7,000  Level Boston Center
Sat 12:57:49 PM 44.4100 -75.0964 150° Southeast 177 204 7,000 -50 Level Boston Center
Sat 12:58:49 PM 44.3647 -75.0625 152° Southeast 177 204 6,900 -50 Descending Boston Center
Sat 12:59:49 PM 44.3219 -75.0286 150° Southeast 177 204 6,900  Level Boston Center
Sat 01:00:49 PM 44.2767 -74.9919 150° Southeast 182 209 6,900  Level Boston Center
Sat 01:01:49 PM 44.2317 -74.9550 150° Southeast 182 209 6,900  Level Boston Center
Sat 01:02:49 PM 44.1886 -74.9214 151° Southeast 177 204 6,900  Level Boston Center
Sat 01:03:49 PM 44.1436 -74.8847 150° Southeast 182 209 6,900  Level Boston Center
Sat 01:04:49 PM 44.0986 -74.8511 152° Southeast 182 209 6,900  Level Boston Center
Sat 01:05:49 PM 44.0556 -74.8147 149° Southeast 182 209 6,900  Level Boston Center
Sat 01:06:49 PM 44.0106 -74.7783 150° Southeast 182 209 6,900  Level Boston Center
Sat 01:07:49 PM 43.9653 -74.7447 152° Southeast 182 209 6,900  Level Boston Center
Sat 01:08:49 PM 43.9222 -74.7086 149° Southeast 182 209 6,900  Level Boston Center
Sat 01:09:49 PM 43.8792 -74.6753 151° Southeast 182 209 6,900  Level Boston Center
Sat 01:10:49 PM 43.8339 -74.6419 152° Southeast 182 209 6,900  Level Boston Center
Sat 01:11:49 PM 43.7908 -74.6058 149° Southeast 182 209 6,900  Level Boston Center
Sat 01:12:49 PM 43.7500 -74.5611 142° Southeast 182 209 6,900  Level Boston Center
Sat 01:13:49 PM 43.7133 -74.5169 139° Southeast 182 209 6,900 50 Level Boston Center
Sat 01:14:49 PM 43.6703 -74.4781 147° Southeast 182 209 7,000  Climbing Boston Center
Sat 01:15:49 PM 43.6269 -74.4422 149° Southeast 176 203 6,900 -50 Descending Boston Center
Sat 01:16:49 PM 43.5839 -74.4150 155° Southeast 181 208 6,900  Level Boston Center
Sat 01:17:49 PM 43.5361 -74.3906 160° South 181 208 6,900  Level Boston Center
Sat 01:18:20 PM 43.5136 -74.3756 154° Southeast 182 209 6,900  Level Boston Center
Sat 01:19:21 PM 43.4661 -74.3511 160° South 182 209 6,900  Level Boston Center
Sat 01:20:21 PM 43.4186 -74.3239 157° South 182 209 6,900  Level Boston Center
Sat 01:21:22 PM 43.3733 -74.2881 150° Southeast 183 211 6,900  Level Boston Center
Sat 01:22:23 PM 43.3281 -74.2497 148° Southeast 182 209 6,900  Level Boston Center
Sat 01:23:23 PM 43.2847 -74.2169 151° Southeast 183 211 6,900  Level Boston Center
Sat 01:24:24 PM 43.2394 -74.1814 150° Southeast 183 211 6,900 -49 Level Boston Center
Sat 01:25:25 PM 43.1922 -74.1458 151° Southeast 184 212 6,800 -298 Descending Boston Center
Sat 01:26:25 PM 43.1508 -74.1106 148° Southeast 180 207 6,300 -397 Descending Boston Center
Sat 01:27:26 PM 43.1139 -74.0756 145° Southeast 165 190 6,000 -197 Descending Boston Center
Sat 01:28:27 PM 43.0789 -74.0461 148° Southeast 142 163 5,900 -295 Descending Boston Center
Sat 01:29:28 PM 43.0653 -73.9803 106° East 185 213 5,400 -422 Descending Boston Center
Sat 01:30:35 PM 43.0536 -73.9147 104° East 156 180 5,000 -340 Descending Boston Center
Sat 01:31:49 PM 43.0400 -73.8464 105° East 148 170 4,600 -448 Descending Boston Center
Sat 01:32:49 PM 43.0175 -73.8117 132° Southeast 131 151 4,000 -579 Descending Boston Center
Sat 01:33:43 PM 42.9906 -73.7997 162° South 112 129 3,500 -495 Descending Boston Center
Sat 01:34:38 PM 42.9653 -73.8078 193° South 105 121 3,100 -446 Descending Boston Center
Sat 01:35:44 PM 42.9339 -73.8128 187° South 107 123 2,600 -236 Descending Boston Center
Sat 01:36:45 PM 42.9047 -73.8092 175° South 106 122 2,600 -103 Level Boston Center
Sat 01:37:40 PM 42.8736 -73.8083 179° South 123 142 2,400 -414 Descending Boston Center
Sat 01:38:41 PM 42.8339 -73.8103 182° South 144 166 1,800 -689 Descending Boston Center
Sat 01:39:42 PM 42.7944 -73.8094 179° South 141 162 1,000 -787 Descending Boston Center
Sat 01:41:00 PM 42.7491 -73.8020 174° South  Level Estimated
Sat 01:48:00 PM 42.7491 -73.8020 180° South  Level Estimated
Sat 01:49:00 PM 42.7491 -73.8020 180° South  Level Estimated

Login

Don't have an account? Register now (free) for customized features, flight alerts, and more!